Time;durP1;ratioP1;P1;durP2;ratioP2;P2;SDS_P1;SDS_P2;PMS_P1;PMS_P2;Temp;Humidity;BMP_temperature;BMP_pressure;BME280_temperature;BME280_humidity;BME280_pressure;Samples;Min_cycle;Max_cycle;Signal;HPM_P1;HPM_P2
2023/09/12 00:01:32;;;;;;;12.60;8.60;;;22.40;1.00;;;;;;5018972;28;20214;-82
2023/09/12 00:03:58;;;;;;;12.27;9.10;;;22.40;1.00;;;;;;5021281;28;20174;-83
2023/09/12 00:06:23;;;;;;;12.43;9.20;;;22.50;1.00;;;;;;5022743;28;20456;-81
2023/09/12 00:08:49;;;;;;;10.63;8.87;;;22.60;1.00;;;;;;5020853;28;20462;-83
2023/09/12 00:11:14;;;;;;;13.00;9.23;;;22.60;1.00;;;;;;5037012;28;20703;-83
2023/09/12 00:13:41;;;;;;;11.13;8.50;;;22.60;1.00;;;;;;5021398;28;20179;-83
2023/09/12 00:16:07;;;;;;;11.27;10.07;;;22.60;1.00;;;;;;5021473;28;20175;-82
2023/09/12 00:18:35;;;;;;;11.27;9.40;;;22.60;1.00;;;;;;5021814;28;20779;-83
2023/09/12 00:21:01;;;;;;;11.47;9.17;;;22.60;1.00;;;;;;5022191;28;20453;-83
2023/09/12 00:23:27;;;;;;;11.60;9.67;;;22.60;1.00;;;;;;5023171;28;20463;-82
2023/09/12 00:25:53;;;;;;;17.37;11.63;;;22.60;1.00;;;;;;5017541;28;20179;-84
2023/09/12 00:28:19;;;;;;;13.90;11.20;;;22.50;1.00;;;;;;5025663;28;20291;-83
2023/09/12 00:30:44;;;;;;;13.20;11.03;;;22.50;1.00;;;;;;5022236;28;20222;-83
2023/09/12 00:33:10;;;;;;;12.77;10.80;;;22.60;1.00;;;;;;5020079;28;20865;-80
2023/09/12 00:35:35;;;;;;;21.07;13.23;;;22.60;1.00;;;;;;5021825;28;20215;-81
2023/09/12 00:38:01;;;;;;;15.70;11.73;;;22.60;1.00;;;;;;5024445;28;20191;-83
2023/09/12 00:40:26;;;;;;;15.27;12.47;;;22.60;1.00;;;;;;5024899;28;20211;-84
2023/09/12 00:42:52;;;;;;;18.07;12.40;;;22.60;1.00;;;;;;5020774;28;20199;-83
2023/09/12 00:45:17;;;;;;;13.77;12.37;;;22.60;1.00;;;;;;5022895;28;20205;-84
2023/09/12 00:47:43;;;;;;;18.43;13.73;;;22.50;1.00;;;;;;5024069;28;20188;-85
2023/09/12 00:50:10;;;;;;;19.20;13.37;;;22.50;1.00;;;;;;5022250;28;20219;-82
2023/09/12 00:52:36;;;;;;;18.77;12.30;;;22.40;1.00;;;;;;5025970;28;20487;-83
2023/09/12 00:55:02;;;;;;;15.70;12.53;;;22.40;99.90;;;;;;5027582;28;20532;-82
2023/09/12 00:57:30;;;;;;;18.00;13.70;;;22.40;99.90;;;;;;5026262;28;20452;-82
2023/09/12 00:59:57;;;;;;;17.30;13.93;;;22.30;99.90;;;;;;5022845;28;21040;-82
2023/09/12 01:02:23;;;;;;;19.87;14.37;;;22.30;1.00;;;;;;5020968;28;20463;-82
2023/09/12 01:04:49;;;;;;;18.83;16.37;;;22.30;4.10;;;;;;5024067;28;20441;-83
2023/09/12 01:07:15;;;;;;;26.97;15.00;;;22.30;99.90;;;;;;5030245;28;20437;-83
2023/09/12 01:09:41;;;;;;;21.80;16.37;;;22.30;99.90;;;;;;5024103;28;20218;-82
2023/09/12 01:12:07;;;;;;;16.73;14.23;;;22.10;99.90;;;;;;5026412;28;20186;-84
2023/09/12 01:14:32;;;;;;;18.90;15.90;;;22.00;99.90;;;;;;5022405;28;20226;-84
2023/09/12 01:16:59;;;;;;;21.40;16.93;;;21.90;42.20;;;;;;5023042;28;20961;-80
2023/09/12 01:19:25;;;;;;;20.93;16.10;;;22.00;99.90;;;;;;5020287;28;20199;-84
2023/09/12 01:22:26;;;;;;;20.60;16.97;;;22.00;99.90;;;;;;5020345;28;20442;-84
2023/09/12 01:25:10;;;;;;;22.93;16.10;;;22.00;99.90;;;;;;5024005;28;20194;-85
2023/09/12 01:27:44;;;;;;;22.30;17.00;;;22.00;99.90;;;;;;5026419;28;20842;-83
2023/09/12 01:30:10;;;;;;;23.33;17.73;;;21.80;99.90;;;;;;5027169;28;20473;-83
2023/09/12 01:32:37;;;;;;;21.77;17.13;;;21.70;1.00;;;;;;5023295;28;20469;-81
2023/09/12 01:35:06;;;;;;;20.87;16.30;;;21.60;1.00;;;;;;5021978;28;20446;-83
2023/09/12 01:37:31;;;;;;;19.27;15.37;;;21.70;1.00;;;;;;5026478;28;20433;-84
2023/09/12 01:39:58;;;;;;;23.00;16.07;;;21.70;33.10;;;;;;5020297;28;20453;-81
2023/09/12 01:42:27;;;;;;;26.10;16.80;;;21.80;99.90;;;;;;5020957;28;20252;-85
2023/09/12 01:44:56;;;;;;;19.63;15.73;;;21.80;99.90;;;;;;5024453;28;20813;-84
2023/09/12 01:47:23;;;;;;;21.10;16.57;;;21.80;99.90;;;;;;5025124;28;20441;-81
2023/09/12 01:49:53;;;;;;;23.80;16.73;;;21.90;99.90;;;;;;5020734;28;21029;-83
2023/09/12 01:52:20;;;;;;;20.27;17.17;;;21.90;99.90;;;;;;5026348;28;20437;-83
2023/09/12 01:54:47;;;;;;;22.03;17.50;;;22.00;1.00;;;;;;5021381;28;20500;-84
2023/09/12 01:57:14;;;;;;;22.80;16.97;;;22.00;1.00;;;;;;5023350;28;20440;-85
2023/09/12 01:59:39;;;;;;;24.23;17.50;;;22.00;1.00;;;;;;5020932;28;20979;-83
2023/09/12 02:02:06;;;;;;;27.47;19.83;;;22.00;1.00;;;;;;5024966;28;20434;-83
2023/09/12 02:04:31;;;;;;;22.33;18.47;;;21.90;99.90;;;;;;5021691;28;20198;-86
2023/09/12 02:06:58;;;;;;;28.87;21.37;;;21.70;99.90;;;;;;5019606;28;20438;-84
2023/09/12 02:09:23;;;;;;;23.03;19.20;;;21.70;1.00;;;;;;5026654;28;20209;-84
2023/09/12 02:11:50;;;;;;;25.93;19.13;;;21.70;1.00;;;;;;5028761;28;20438;-83
2023/09/12 02:14:17;;;;;;;28.83;20.27;;;21.60;1.00;;;;;;5029009;28;20185;-81
2023/09/12 02:16:43;;;;;;;25.77;19.07;;;21.60;1.00;;;;;;5028997;28;20524;-81
2023/09/12 02:19:09;;;;;;;24.70;18.77;;;21.60;99.90;;;;;;5028663;28;21009;-83
2023/09/12 02:21:34;;;;;;;25.63;20.10;;;21.60;94.60;;;;;;5027268;28;20230;-83
2023/09/12 02:24:00;;;;;;;27.13;20.67;;;21.60;89.40;;;;;;5029135;28;20301;-83
2023/09/12 02:26:25;;;;;;;30.13;22.93;;;21.60;97.80;;;;;;5027988;28;20241;-83
2023/09/12 02:28:51;;;;;;;28.67;21.87;;;21.60;56.50;;;;;;5027869;28;20226;-83
2023/09/12 02:31:16;;;;;;;28.30;22.27;;;21.60;23.20;;;;;;5028652;28;20294;-80
2023/09/12 02:33:42;;;;;;;31.53;22.47;;;21.60;28.10;;;;;;5026746;28;20258;-80
2023/09/12 02:36:08;;;;;;;26.90;21.17;;;21.60;83.40;;;;;;5025857;28;20206;-83
2023/09/12 02:38:33;;;;;;;28.97;22.10;;;21.60;84.10;;;;;;5025309;28;20203;-83
2023/09/12 02:40:59;;;;;;;26.67;21.40;;;21.60;99.90;;;;;;5024950;28;20685;-83
2023/09/12 02:43:24;;;;;;;29.13;21.97;;;21.50;99.90;;;;;;5027294;28;20449;-84
2023/09/12 02:45:50;;;;;;;28.53;21.30;;;21.50;99.90;;;;;;5027629;28;20183;-83
2023/09/12 02:48:15;;;;;;;31.90;23.13;;;21.50;99.90;;;;;;5027762;28;20187;-83
2023/09/12 02:50:41;;;;;;;33.30;24.40;;;21.30;99.90;;;;;;5027489;28;20218;-84
2023/09/12 02:53:07;;;;;;;30.00;25.77;;;21.10;1.00;;;;;;5024816;28;20270;-86
2023/09/12 02:55:32;;;;;;;35.23;26.67;;;20.80;1.00;;;;;;5024928;28;20197;-83
2023/09/12 02:57:58;;;;;;;38.10;26.63;;;20.80;1.00;;;;;;5026875;28;20183;-83
2023/09/12 03:00:24;;;;;;;37.70;27.40;;;20.70;1.00;;;;;;5026202;28;20512;-83
2023/09/12 03:02:50;;;;;;;35.57;26.80;;;20.60;1.00;;;;;;5026781;28;20183;-83
2023/09/12 03:05:15;;;;;;;43.33;27.20;;;20.60;1.00;;;;;;5028999;28;20473;-83
2023/09/12 03:07:41;;;;;;;32.50;24.63;;;20.50;1.00;;;;;;5023206;28;20183;-83
2023/09/12 03:10:07;;;;;;;33.57;25.90;;;20.50;1.00;;;;;;5022645;28;20246;-83
2023/09/12 03:12:33;;;;;;;32.97;25.73;;;20.50;1.00;;;;;;5025988;28;20551;-83
2023/09/12 03:14:58;;;;;;;27.77;21.97;;;20.50;1.00;;;;;;5025196;28;20437;-83
2023/09/12 03:17:24;;;;;;;31.00;24.37;;;20.50;1.00;;;;;;5027642;28;20203;-83
2023/09/12 03:19:49;;;;;;;33.60;24.73;;;20.50;1.00;;;;;;5026617;28;20787;-83
2023/09/12 03:22:15;;;;;;;33.13;22.83;;;20.50;1.00;;;;;;5026714;28;20190;-83
2023/09/12 03:24:40;;;;;;;29.77;22.57;;;20.50;1.00;;;;;;5024029;28;20195;-83
2023/09/12 03:27:07;;;;;;;32.27;22.90;;;20.50;1.00;;;;;;5027526;28;20190;-83
2023/09/12 03:29:33;;;;;;;28.67;22.83;;;20.50;1.00;;;;;;5017351;28;20213;-85
2023/09/12 03:31:58;;;;;;;28.53;22.50;;;20.60;1.00;;;;;;5021179;28;20444;-83
2023/09/12 03:34:24;;;;;;;28.50;22.30;;;20.70;1.00;;;;;;5022810;28;20254;-85
2023/09/12 03:36:50;;;;;;;30.87;23.97;;;20.70;1.00;;;;;;5021863;28;20190;-84
2023/09/12 03:39:15;;;;;;;26.20;21.60;;;20.70;1.00;;;;;;5020873;28;20212;-86
2023/09/12 03:41:41;;;;;;;30.63;22.97;;;20.70;1.00;;;;;;5021732;28;20254;-83
2023/09/12 03:44:06;;;;;;;30.67;23.13;;;20.80;1.00;;;;;;5028300;28;20206;-83
2023/09/12 03:46:32;;;;;;;30.63;24.20;;;20.80;1.00;;;;;;5027702;28;20193;-84
2023/09/12 03:48:57;;;;;;;32.73;22.97;;;20.80;1.00;;;;;;5027956;28;20206;-84
2023/09/12 03:51:23;;;;;;;27.00;22.50;;;20.80;1.00;;;;;;5028009;28;20242;-83
2023/09/12 03:53:49;;;;;;;30.43;23.17;;;20.90;1.00;;;;;;5022639;28;20237;-85
2023/09/12 03:56:16;;;;;;;29.37;21.70;;;20.90;1.00;;;;;;5027706;28;20644;-83
2023/09/12 03:58:42;;;;;;;28.23;20.77;;;20.90;1.00;;;;;;5022324;28;20631;-84
2023/09/12 04:01:07;;;;;;;31.00;21.20;;;20.90;1.00;;;;;;5026075;28;20884;-83
2023/09/12 04:03:33;;;;;;;28.30;21.40;;;20.90;1.00;;;;;;5028571;28;20448;-84
2023/09/12 04:05:58;;;;;;;27.10;21.20;;;21.00;99.90;;;;;;5028756;28;20182;-83
2023/09/12 04:08:24;;;;;;;29.57;23.30;;;21.00;99.90;;;;;;5027614;28;20332;-83
2023/09/12 04:10:49;;;;;;;31.13;22.37;;;21.00;99.90;;;;;;5023886;28;20210;-81
2023/09/12 04:13:15;;;;;;;30.17;22.47;;;21.00;99.90;;;;;;5017174;28;20190;-83
2023/09/12 04:15:40;;;;;;;30.20;23.80;;;21.00;99.90;;;;;;5020012;28;20679;-82
2023/09/12 04:18:06;;;;;;;30.63;22.40;;;21.00;99.90;;;;;;5021559;28;20217;-83
2023/09/12 04:20:32;;;;;;;26.50;22.43;;;21.00;99.90;;;;;;5020449;28;20214;-84
2023/09/12 04:22:57;;;;;;;25.80;22.80;;;21.00;99.90;;;;;;5024651;28;20448;-83
2023/09/12 04:25:23;;;;;;;33.87;21.43;;;21.10;99.90;;;;;;5023544;28;20191;-81
2023/09/12 04:27:48;;;;;;;28.10;22.20;;;21.10;99.90;;;;;;5022110;28;20183;-83
2023/09/12 04:30:14;;;;;;;27.37;20.90;;;21.10;99.90;;;;;;5041003;28;20439;-83
2023/09/12 04:32:39;;;;;;;28.70;21.80;;;21.10;99.90;;;;;;5023198;28;20203;-83
2023/09/12 04:35:05;;;;;;;29.47;22.07;;;21.10;99.90;;;;;;5016386;28;20603;-83
2023/09/12 04:37:31;;;;;;;25.90;22.13;;;21.10;99.90;;;;;;5031293;28;20195;-83
2023/09/12 04:39:57;;;;;;;32.33;22.50;;;21.10;99.90;;;;;;5028378;28;20477;-83
2023/09/12 04:42:22;;;;;;;35.50;24.20;;;21.10;99.90;;;;;;5030213;28;20194;-83
2023/09/12 04:44:48;;;;;;;34.83;25.20;;;21.00;99.90;;;;;;5030254;28;20236;-84
2023/09/12 04:47:13;;;;;;;33.53;24.63;;;21.00;99.90;;;;;;5028722;28;20725;-83
2023/09/12 04:49:40;;;;;;;33.40;27.70;;;20.90;1.00;;;;;;5031239;28;20464;-81
2023/09/12 04:52:06;;;;;;;33.40;26.13;;;20.90;1.00;;;;;;5029719;28;20202;-83
2023/09/12 04:54:32;;;;;;;35.90;28.60;;;20.90;1.00;;;;;;5030274;28;20525;-83
2023/09/12 04:56:57;;;;;;;41.07;27.00;;;20.90;1.00;;;;;;5031810;28;21073;-83
2023/09/12 04:59:23;;;;;;;38.57;28.70;;;20.90;1.00;;;;;;5027763;28;20472;-83
2023/09/12 05:01:49;;;;;;;37.50;28.33;;;20.90;1.00;;;;;;5031088;28;20200;-83
2023/09/12 05:04:14;;;;;;;33.10;27.30;;;20.90;1.00;;;;;;5017656;28;20183;-84
2023/09/12 05:06:40;;;;;;;39.63;29.30;;;20.80;1.00;;;;;;5030598;28;20441;-81
2023/09/12 05:09:08;;;;;;;33.83;27.00;;;20.90;1.00;;;;;;5022820;28;20190;-86
2023/09/12 05:11:34;;;;;;;34.50;25.10;;;20.90;1.00;;;;;;5027127;28;20233;-84
2023/09/12 05:14:00;;;;;;;34.57;26.57;;;20.90;1.00;;;;;;5046829;28;20446;-83
2023/09/12 05:16:25;;;;;;;39.07;30.07;;;20.90;1.00;;;;;;5030708;28;20566;-81
2023/09/12 05:18:51;;;;;;;40.47;27.37;;;20.80;1.00;;;;;;5032421;28;20207;-83
2023/09/12 05:21:17;;;;;;;46.87;30.93;;;20.70;1.00;;;;;;5029800;28;20206;-84
2023/09/12 05:23:42;;;;;;;57.93;36.07;;;20.50;1.00;;;;;;5029174;28;20197;-83
2023/09/12 05:26:08;;;;;;;66.17;41.97;;;20.40;1.00;;;;;;5028857;28;20194;-83
2023/09/12 05:28:34;;;;;;;67.57;46.40;;;20.40;1.00;;;;;;5029482;28;20190;-84
2023/09/12 05:30:59;;;;;;;60.90;41.53;;;20.30;1.00;;;;;;5028122;28;20203;-84
2023/09/12 05:33:25;;;;;;;67.57;40.67;;;20.30;1.00;;;;;;5024694;28;20495;-84
2023/09/12 05:35:50;;;;;;;64.50;41.23;;;20.30;1.00;;;;;;5029485;28;20183;-81
2023/09/12 05:38:16;;;;;;;58.43;40.97;;;20.40;1.00;;;;;;5028330;28;20236;-83
2023/09/12 05:40:41;;;;;;;68.37;48.03;;;20.50;1.00;;;;;;5026269;28;20199;-83
2023/09/12 05:43:07;;;;;;;59.83;44.30;;;20.50;1.00;;;;;;5025444;28;20184;-82
2023/09/12 05:45:32;;;;;;;64.73;47.50;;;20.50;1.00;;;;;;5024656;28;20191;-83
2023/09/12 05:47:59;;;;;;;54.80;42.80;;;20.40;1.00;;;;;;5023990;28;20188;-81
2023/09/12 05:50:24;;;;;;;62.23;44.37;;;20.30;1.00;;;;;;5029159;28;20259;-83
2023/09/12 05:52:50;;;;;;;49.17;39.53;;;20.40;1.00;;;;;;5028608;28;20446;-83
2023/09/12 05:55:16;;;;;;;51.77;39.77;;;20.40;1.00;;;;;;5025682;28;20247;-84
2023/09/12 05:57:42;;;;;;;55.80;45.40;;;20.50;1.00;;;;;;5026201;28;20441;-84
2023/09/12 06:00:11;;;;;;;70.00;52.27;;;20.50;1.00;;;;;;5027500;28;20968;-83
2023/09/12 06:02:40;;;;;;;53.77;42.20;;;20.60;1.00;;;;;;5028333;28;20565;-83
2023/09/12 06:05:16;;;;;;;54.60;43.90;;;20.60;1.00;;;;;;5027789;28;20433;-86
2023/09/12 06:07:42;;;;;;;45.57;35.67;;;20.60;1.00;;;;;;5022097;28;20843;-82
2023/09/12 06:10:08;;;;;;;45.50;32.83;;;20.70;1.00;;;;;;5021065;28;20461;-84
2023/09/12 06:12:36;;;;;;;45.77;34.93;;;20.70;1.00;;;;;;5022517;28;20222;-83
2023/09/12 06:15:02;;;;;;;40.87;33.43;;;20.60;1.00;;;;;;5022337;28;20496;-83
2023/09/12 06:17:27;;;;;;;43.10;33.47;;;20.50;1.00;;;;;;5020916;28;20525;-82
2023/09/12 06:19:55;;;;;;;42.87;29.53;;;20.50;1.00;;;;;;5034211;28;20560;-82
2023/09/12 06:22:22;;;;;;;43.57;32.37;;;20.60;1.00;;;;;;5013289;28;20839;-82
2023/09/12 06:24:49;;;;;;;38.20;32.87;;;20.70;1.00;;;;;;5027175;28;20520;-82
2023/09/12 06:27:18;;;;;;;38.17;29.60;;;20.80;1.00;;;;;;5026705;28;20438;-78
2023/09/12 06:29:50;;;;;;;38.17;29.03;;;20.90;1.00;;;;;;5026927;28;20492;-82
2023/09/12 06:32:17;;;;;;;40.23;27.90;;;21.00;1.00;;;;;;5021025;28;20444;-81
2023/09/12 06:34:43;;;;;;;35.83;28.57;;;21.10;1.00;;;;;;5032819;28;20441;-80
2023/09/12 06:37:10;;;;;;;39.10;30.17;;;21.20;1.00;;;;;;5018670;28;20469;-83
2023/09/12 06:39:35;;;;;;;41.47;31.70;;;21.30;1.00;;;;;;5018925;28;20211;-82
2023/09/12 06:42:02;;;;;;;38.30;29.53;;;21.40;1.00;;;;;;5022611;28;20445;-82
2023/09/12 06:44:27;;;;;;;37.83;31.47;;;21.50;1.00;;;;;;5022757;28;20238;-82
2023/09/12 06:46:53;;;;;;;44.03;33.13;;;21.60;1.00;;;;;;5021667;28;20438;-83
2023/09/12 06:49:18;;;;;;;41.40;33.90;;;21.60;1.00;;;;;;5023115;28;20248;-78
2023/09/12 06:51:43;;;;;;;38.93;30.23;;;21.70;1.00;;;;;;5022901;28;20221;-82
2023/09/12 06:54:09;;;;;;;37.17;29.67;;;21.80;1.00;;;;;;5019575;28;20179;-83
2023/09/12 06:56:37;;;;;;;36.17;28.27;;;21.80;1.00;;;;;;5020585;28;20236;-83
2023/09/12 06:59:04;;;;;;;37.70;28.50;;;21.90;1.00;;;;;;5033047;28;20741;-82
2023/09/12 07:01:29;;;;;;;32.73;27.60;;;22.00;1.00;;;;;;5017432;28;20998;-82
2023/09/12 07:03:56;;;;;;;31.97;27.10;;;23.00;1.00;;;;;;5023349;28;20525;-83
2023/09/12 07:06:21;;;;;;;32.47;25.87;;;24.10;99.90;;;;;;5015380;28;20187;-82
2023/09/12 07:08:47;;;;;;;29.57;26.20;;;24.30;99.90;;;;;;5018765;28;20437;-83
2023/09/12 07:11:12;;;;;;;28.10;25.03;;;24.70;1.00;;;;;;5021875;28;20220;-85
2023/09/12 07:13:38;;;;;;;30.10;24.53;;;25.20;99.90;;;;;;5019193;28;20297;-83
2023/09/12 07:16:04;;;;;;;30.77;26.03;;;26.10;1.00;;;;;;5016302;28;20639;-83
2023/09/12 07:18:32;;;;;;;24.87;22.30;;;27.10;99.90;;;;;;5030569;28;20665;-83
2023/09/12 07:20:59;;;;;;;23.23;19.87;;;30.10;99.90;;;;;;5030633;28;21275;-84
2023/09/12 07:23:24;;;;;;;21.50;19.30;;;33.40;1.00;;;;;;5032236;28;20964;-84
2023/09/12 07:25:50;;;;;;;20.47;18.10;;;35.90;1.00;;;;;;5032849;28;20444;-84
2023/09/12 07:28:16;;;;;;;19.70;17.60;;;37.80;1.00;;;;;;5045744;28;20180;-81
2023/09/12 07:30:45;;;;;;;17.43;15.53;;;39.50;1.00;;;;;;5029877;28;20892;-82
2023/09/12 07:33:10;;;;;;;17.80;16.10;;;41.30;1.00;;;;;;5028079;28;20175;-82
2023/09/12 07:35:36;;;;;;;17.30;15.70;;;42.20;1.00;;;;;;5030263;28;20463;-82
2023/09/12 07:38:01;;;;;;;15.90;14.47;;;42.70;1.00;;;;;;5031594;28;20194;-82
2023/09/12 07:40:26;;;;;;;17.10;15.60;;;43.60;1.00;;;;;;5030571;28;20219;-82
2023/09/12 07:42:54;;;;;;;16.83;15.20;;;43.90;1.00;;;;;;5031138;28;20652;-82
2023/09/12 07:45:20;;;;;;;15.53;14.17;;;44.20;1.00;;;;;;5030652;28;20183;-82
2023/09/12 07:47:46;;;;;;;17.23;15.40;;;44.60;1.00;;;;;;5030920;28;20934;-82
2023/09/12 07:50:11;;;;;;;16.77;14.63;;;45.00;1.00;;;;;;5029328;28;20959;-82
2023/09/12 07:52:37;;;;;;;18.33;16.63;;;45.00;99.90;;;;;;5027344;28;20193;-82
2023/09/12 07:55:03;;;;;;;19.33;17.73;;;45.50;99.90;;;;;;5030009;28;20676;-82
2023/09/12 07:57:29;;;;;;;22.43;20.63;;;46.60;99.90;;;;;;5029822;28;20186;-82
2023/09/12 07:59:58;;;;;;;20.00;18.20;;;47.30;99.90;;;;;;5028762;28;21115;-82
2023/09/12 08:02:24;;;;;;;16.27;14.97;;;48.10;1.00;;;;;;5027430;28;20441;-80
2023/09/12 08:04:56;;;;;;;14.03;12.93;;;48.60;1.00;;;;;;5029555;28;20432;-80
2023/09/12 08:07:22;;;;;;;16.95;15.38;;;49.00;1.00;;;;;;5028139;28;20200;-80
2023/09/12 08:09:53;;;;;;;14.70;13.50;;;49.60;1.00;;;;;;5028432;28;20604;-80
2023/09/12 08:12:19;;;;;;;14.73;13.57;;;49.90;1.00;;;;;;5028074;28;20206;-80
2023/09/12 08:14:45;;;;;;;13.23;12.03;;;49.60;99.90;;;;;;5028119;28;21156;-80
2023/09/12 08:17:11;;;;;;;13.70;12.47;;;49.70;99.90;;;;;;5030092;28;20448;-81
2023/09/12 08:19:36;;;;;;;13.90;12.77;;;50.00;99.90;;;;;;5029318;28;20206;-80
2023/09/12 08:22:02;;;;;;;12.27;11.17;;;50.40;99.90;;;;;;5030007;28;20447;-80
2023/09/12 08:24:27;;;;;;;21.00;16.17;;;50.60;99.90;;;;;;5026287;28;20174;-81
2023/09/12 08:26:54;;;;;;;12.03;11.03;;;50.70;99.90;;;;;;5027704;28;20194;-78
2023/09/12 08:29:20;;;;;;;11.33;10.23;;;49.60;99.90;;;;;;5022394;28;20181;-78
2023/09/12 08:31:46;;;;;;;10.80;9.67;;;49.60;99.90;;;;;;5028947;28;21633;-80
2023/09/12 08:34:12;;;;;;;10.40;9.40;;;49.80;99.90;;;;;;5026853;28;20201;-81
2023/09/12 08:36:38;;;;;;;10.13;9.33;;;48.10;99.90;;;;;;5027069;28;20449;-81
2023/09/12 08:39:04;;;;;;;10.80;9.90;;;46.50;99.90;;;;;;5028157;28;20282;-79
2023/09/12 08:41:30;;;;;;;10.27;9.37;;;47.20;99.90;;;;;;5027733;28;20247;-80
2023/09/12 08:43:56;;;;;;;10.43;8.73;;;47.70;99.90;;;;;;5028931;28;20429;-80
2023/09/12 08:46:22;;;;;;;12.43;10.00;;;45.70;99.90;;;;;;5027749;28;20667;-77
2023/09/12 08:48:49;;;;;;;9.97;9.00;;;43.80;99.90;;;;;;5028274;28;20198;-79
2023/09/12 08:51:15;;;;;;;13.73;8.73;;;42.30;99.90;;;;;;5027529;28;20472;-79
2023/09/12 08:53:40;;;;;;;10.67;9.60;;;41.10;99.90;;;;;;5028448;28;20453;-78
2023/09/12 08:56:07;;;;;;;13.67;12.37;;;40.00;99.90;;;;;;5025464;28;20203;-79
2023/09/12 08:58:34;;;;;;;10.53;9.63;;;40.20;99.90;;;;;;5028343;28;20203;-79
2023/09/12 09:01:00;;;;;;;10.87;9.73;;;40.00;99.90;;;;;;5029240;28;21072;-79
2023/09/12 09:03:26;;;;;;;10.63;9.70;;;39.20;99.90;;;;;;5029925;28;20973;-81
2023/09/12 09:05:54;;;;;;;11.80;10.70;;;38.00;99.90;;;;;;5033506;28;20964;-81
2023/09/12 09:08:21;;;;;;;10.73;9.73;;;37.30;99.90;;;;;;5030535;28;20524;-83
2023/09/12 09:10:57;;;;;;;9.90;8.90;;;38.80;99.90;;;;;;5027100;28;20495;-82
2023/09/12 09:13:23;;;;;;;9.93;8.90;;;41.40;99.90;;;;;;5030960;28;20428;-82
2023/09/12 09:15:48;;;;;;;9.00;8.10;;;42.90;99.90;;;;;;5032225;28;20464;-83
2023/09/12 09:18:14;;;;;;;10.07;8.97;;;43.20;99.90;;;;;;5031559;28;20187;-82
2023/09/12 09:20:40;;;;;;;8.30;7.60;;;43.90;99.90;;;;;;5036398;28;20213;-83
2023/09/12 09:23:10;;;;;;;9.33;8.40;;;45.20;99.90;;;;;;5048796;28;20182;-83
2023/09/12 09:25:40;;;;;;;9.67;8.93;;;46.80;99.90;;;;;;5043005;28;20440;-84
2023/09/12 09:28:16;;;;;;;9.43;8.73;;;47.00;99.90;;;;;;5033172;28;20437;-83
2023/09/12 09:30:44;;;;;;;8.13;7.53;;;45.40;99.90;;;;;;5024989;28;20469;-82
2023/09/12 09:33:11;;;;;;;9.83;8.93;;;45.90;99.90;;;;;;5031443;28;21207;-84
2023/09/12 09:35:37;;;;;;;8.43;7.63;;;46.40;99.90;;;;;;5035053;28;20437;-83
2023/09/12 09:38:04;;;;;;;7.43;6.83;;;46.70;99.90;;;;;;5031437;28;20767;-82
2023/09/12 09:40:31;;;;;;;6.70;6.07;;;45.20;99.90;;;;;;5035354;28;20222;-83
2023/09/12 09:42:59;;;;;;;7.03;6.53;;;45.30;99.90;;;;;;5033334;28;20810;-82
2023/09/12 09:45:26;;;;;;;7.50;6.70;;;45.50;99.90;;;;;;5031870;28;20496;-80
2023/09/12 09:47:51;;;;;;;9.17;8.00;;;45.50;99.90;;;;;;5034040;28;20437;-82
2023/09/12 09:50:17;;;;;;;9.20;8.40;;;46.00;99.90;;;;;;5028884;28;20476;-81
2023/09/12 09:52:44;;;;;;;7.33;6.73;;;46.70;99.90;;;;;;5032081;28;20248;-82
2023/09/12 09:55:19;;;;;;;6.00;5.50;;;47.40;99.90;;;;;;5034191;28;20190;-81
2023/09/12 09:57:45;;;;;;;5.10;4.60;;;47.40;99.90;;;;;;5032856;28;20460;-78
2023/09/12 10:00:14;;;;;;;6.63;5.40;;;46.80;99.90;;;;;;5031300;28;20528;-78
2023/09/12 10:02:40;;;;;;;5.50;5.00;;;46.90;99.90;;;;;;5035293;28;20233;-80
2023/09/12 10:05:09;;;;;;;6.57;6.00;;;47.10;99.90;;;;;;5033269;28;20464;-79
2023/09/12 10:07:37;;;;;;;6.27;5.70;;;47.10;99.90;;;;;;5033230;28;20429;-82
2023/09/12 10:10:04;;;;;;;5.60;5.10;;;47.70;99.90;;;;;;5033402;28;20472;-81
2023/09/12 10:12:33;;;;;;;5.07;4.67;;;47.50;99.90;;;;;;5033720;28;20467;-81
2023/09/12 10:15:00;;;;;;;5.27;4.70;;;46.10;99.90;;;;;;5034207;28;20441;-82
2023/09/12 10:17:33;;;;;;;4.43;4.03;;;44.60;99.90;;;;;;5030107;28;20487;-81
2023/09/12 10:20:09;;;;;;;5.70;4.90;;;45.00;99.90;;;;;;5034710;28;20456;-82
2023/09/12 10:22:43;;;;;;;4.13;3.73;;;45.60;99.90;;;;;;5036570;28;20958;-82
2023/09/12 10:25:10;;;;;;;4.23;3.83;;;45.80;99.90;;;;;;5025373;28;20419;-81
2023/09/12 10:27:37;;;;;;;4.70;4.20;;;44.10;99.90;;;;;;5029659;28;20437;-82
2023/09/12 10:30:04;;;;;;;4.70;4.20;;;43.10;99.90;;;;;;5028999;28;20461;-81
2023/09/12 10:32:32;;;;;;;5.80;4.83;;;42.00;99.90;;;;;;5032910;28;20448;-80
2023/09/12 10:34:59;;;;;;;4.77;4.33;;;41.00;99.90;;;;;;5030212;28;20495;-80
2023/09/12 10:37:26;;;;;;;6.77;6.00;;;40.10;99.90;;;;;;5024132;28;20536;-81
2023/09/12 10:39:55;;;;;;;6.50;5.50;;;39.40;99.90;;;;;;5029198;28;20476;-81
2023/09/12 10:42:23;;;;;;;5.80;5.20;;;38.80;99.90;;;;;;5045464;28;20453;-81
2023/09/12 10:44:51;;;;;;;6.33;4.97;;;38.40;99.90;;;;;;5027603;28;21038;-80
2023/09/12 10:47:18;;;;;;;6.50;5.00;;;38.30;99.90;;;;;;5029093;28;20460;-79
2023/09/12 10:49:44;;;;;;;5.17;4.67;;;38.20;99.90;;;;;;5030256;28;20504;-80
2023/09/12 10:52:09;;;;;;;5.60;5.10;;;38.70;99.90;;;;;;5025156;28;20493;-80
2023/09/12 10:54:40;;;;;;;4.80;4.40;;;39.60;99.90;;;;;;5030631;28;20437;-81
2023/09/12 10:57:07;;;;;;;4.50;4.10;;;41.10;99.90;;;;;;5029865;28;20198;-81
2023/09/12 10:59:36;;;;;;;6.63;5.53;;;42.20;99.90;;;;;;5030232;28;20433;-81
2023/09/12 11:02:31;;;;;;;5.57;4.97;;;43.20;99.90;;;;;;5029531;28;20524;-81
2023/09/12 11:04:57;;;;;;;4.40;4.10;;;43.30;99.90;;;;;;5042308;28;20810;-81
2023/09/12 11:07:53;;;;;;;4.83;4.40;;;43.60;99.90;;;;;;5028084;28;20442;-80
2023/09/12 11:10:20;;;;;;;4.50;4.10;;;44.20;99.90;;;;;;5020969;28;20862;-81
2023/09/12 11:12:59;;;;;;;5.70;5.10;;;44.80;99.90;;;;;;5022938;28;20452;-82
2023/09/12 11:15:28;;;;;;;5.90;5.40;;;45.10;99.90;;;;;;5023587;28;20476;-80
2023/09/12 11:18:04;;;;;;;6.60;4.73;;;45.40;99.90;;;;;;5028053;28;20437;-80
2023/09/12 11:20:52;;;;;;;4.23;3.83;;;45.60;99.90;;;;;;5036790;28;20510;-80
2023/09/12 11:23:18;;;;;;;6.40;5.50;;;45.80;99.90;;;;;;5022158;28;20437;-81
2023/09/12 11:25:44;;;;;;;4.77;4.37;;;45.40;99.90;;;;;;5026421;28;20803;-80
2023/09/12 11:28:10;;;;;;;4.87;4.47;;;45.00;99.90;;;;;;5027863;28;20210;-81
2023/09/12 11:30:35;;;;;;;3.90;3.50;;;45.00;99.90;;;;;;5024279;28;20711;-81
2023/09/12 11:33:04;;;;;;;4.33;3.90;;;45.10;99.90;;;;;;5026674;28;20187;-80
2023/09/12 11:35:35;;;;;;;4.37;4.00;;;44.90;99.90;;;;;;5028306;28;20632;-80
2023/09/12 11:38:02;;;;;;;4.33;3.57;;;44.40;99.90;;;;;;5027102;28;20434;-79
2023/09/12 11:40:33;;;;;;;3.60;3.30;;;44.50;99.90;;;;;;5026393;28;20519;-82
2023/09/12 11:42:59;;;;;;;3.47;3.17;;;44.90;99.90;;;;;;5026798;28;20805;-81
2023/09/12 11:45:25;;;;;;;4.67;3.30;;;45.00;99.90;;;;;;5027423;28;20448;-81
2023/09/12 11:47:51;;;;;;;3.23;2.93;;;45.10;99.90;;;;;;5040832;28;20456;-79
2023/09/12 11:50:33;;;;;;;5.37;3.90;;;44.70;99.90;;;;;;5026868;28;20484;-80
2023/09/12 11:53:07;;;;;;;5.10;3.90;;;44.20;99.90;;;;;;5025632;28;20194;-81
2023/09/12 11:55:47;;;;;;;5.03;3.23;;;42.60;99.90;;;;;;5023657;28;20506;-80
2023/09/12 11:58:17;;;;;;;5.93;3.70;;;43.00;99.90;;;;;;5021254;28;20802;-81
2023/09/12 12:00:56;;;;;;;4.93;4.30;;;42.90;99.90;;;;;;5026436;28;20453;-81
2023/09/12 12:03:23;;;;;;;4.53;4.07;;;43.00;99.90;;;;;;5025194;28;20437;-80
2023/09/12 12:05:49;;;;;;;4.20;3.90;;;43.00;99.90;;;;;;5027549;28;20632;-80
2023/09/12 12:08:17;;;;;;;4.87;4.33;;;43.60;99.90;;;;;;5025236;28;20532;-82
2023/09/12 12:10:43;;;;;;;6.93;3.73;;;43.90;99.90;;;;;;5027322;28;20544;-79
2023/09/12 12:13:15;;;;;;;5.30;3.60;;;44.30;99.90;;;;;;5026474;28;20434;-82
2023/09/12 12:15:42;;;;;;;3.43;3.13;;;44.50;99.90;;;;;;5027530;28;20202;-82
2023/09/12 12:18:07;;;;;;;4.57;3.50;;;43.80;99.90;;;;;;5026900;28;21224;-82
2023/09/12 12:20:33;;;;;;;3.70;3.00;;;43.00;99.90;;;;;;5027868;28;20468;-81
2023/09/12 12:22:58;;;;;;;4.80;3.27;;;42.60;99.90;;;;;;5027459;28;20175;-82
2023/09/12 12:25:24;;;;;;;3.37;3.07;;;42.60;99.90;;;;;;5024194;28;20171;-81
2023/09/12 12:27:49;;;;;;;3.77;3.47;;;43.00;99.90;;;;;;5028198;28;20210;-80
2023/09/12 12:30:15;;;;;;;5.60;3.97;;;42.70;99.90;;;;;;5026920;28;20214;-82
2023/09/12 12:32:46;;;;;;;6.73;4.23;;;42.30;99.90;;;;;;5027296;28;20186;-81
2023/09/12 12:35:23;;;;;;;3.90;3.50;;;42.00;99.90;;;;;;5029109;28;20171;-81
2023/09/12 12:37:55;;;;;;;4.30;3.50;;;42.20;99.90;;;;;;5044645;28;20475;-81